createdAt,value
2022-09-13T00:03:00.842Z,0.00
2022-09-13T00:08:03.039Z,0.00
2022-09-13T00:13:03.179Z,0.00
2022-09-13T00:18:03.273Z,0.00
2022-09-13T00:23:02.434Z,0.00
2022-09-13T00:28:03.659Z,0.00
2022-09-13T00:33:04.890Z,0.00
2022-09-13T00:38:06.066Z,0.00
2022-09-13T00:43:07.257Z,0.00
2022-09-13T00:48:08.451Z,0.00
2022-09-13T00:53:09.690Z,0.00
2022-09-13T00:58:10.863Z,0.00
2022-09-13T01:03:12.079Z,0.00
2022-09-13T01:08:13.189Z,0.00
2022-09-13T01:13:14.388Z,0.00
2022-09-13T01:18:16.637Z,0.00
2022-09-13T01:23:15.843Z,0.00
2022-09-13T01:28:17.049Z,0.00
2022-09-13T01:33:17.328Z,0.00
2022-09-13T01:38:18.420Z,0.00
2022-09-13T01:43:19.633Z,0.00
2022-09-13T01:48:20.809Z,0.00
2022-09-13T01:53:21.976Z,0.00
2022-09-13T01:58:23.124Z,0.00
2022-09-13T02:03:24.219Z,0.00
2022-09-13T02:08:25.340Z,0.00
2022-09-13T02:13:26.509Z,0.00
2022-09-13T02:18:27.694Z,0.00
2022-09-13T02:23:28.905Z,0.00
2022-09-13T02:28:30.051Z,0.00
2022-09-13T02:33:32.125Z,0.00
2022-09-13T02:38:32.303Z,0.00
2022-09-13T02:43:31.374Z,0.00
2022-09-13T02:48:37.163Z,0.00
2022-09-13T02:53:33.708Z,0.00
2022-09-13T02:58:32.887Z,0.00
2022-09-13T03:03:34.204Z,0.00
2022-09-13T03:08:34.417Z,0.00
2022-09-13T03:13:35.803Z,0.00
2022-09-13T03:18:37.006Z,0.00
2022-09-13T03:23:38.077Z,0.00
2022-09-13T03:28:39.236Z,0.00
2022-09-13T03:33:40.405Z,0.00
2022-09-13T03:38:41.642Z,0.00
2022-09-13T03:43:44.722Z,0.00
2022-09-13T03:48:44.958Z,0.00
2022-09-13T03:53:45.030Z,0.00
2022-09-13T03:58:44.110Z,0.00
2022-09-13T04:03:45.321Z,0.00
2022-09-13T04:08:46.500Z,0.00
2022-09-13T04:13:47.931Z,0.00
2022-09-13T04:18:47.097Z,0.00
2022-09-13T04:23:48.288Z,0.00
2022-09-13T04:28:49.521Z,4.00
2022-09-13T04:33:50.787Z,12.00
2022-09-13T04:38:51.983Z,20.00
2022-09-13T04:43:53.118Z,52.00
2022-09-13T04:48:54.267Z,100.00
2022-09-13T04:53:55.438Z,172.00
2022-09-13T04:58:56.595Z,292.00
2022-09-13T05:03:57.818Z,452.00
2022-09-13T05:08:58.904Z,616.00
2022-09-13T05:14:01.162Z,772.00
2022-09-13T05:19:01.353Z,916.00
2022-09-13T05:24:00.593Z,1040.00
2022-09-13T05:29:01.913Z,1200.00
2022-09-13T05:34:03.096Z,1372.00
2022-09-13T05:39:28.962Z,1468.00
2022-09-13T05:44:12.609Z,1564.00
2022-09-13T05:49:04.300Z,1696.00
2022-09-13T05:54:05.410Z,1980.00
2022-09-13T05:59:06.542Z,2404.00
2022-09-13T06:04:07.772Z,2544.00
2022-09-13T06:09:08.967Z,2680.00
2022-09-13T06:14:10.084Z,2820.00
2022-09-13T06:19:12.153Z,2924.00
2022-09-13T06:24:11.376Z,3028.00
2022-09-13T06:29:12.456Z,3136.00
2022-09-13T06:34:13.630Z,3072.00
2022-09-13T06:39:14.770Z,3160.00
2022-09-13T06:44:15.897Z,3248.00
2022-09-13T06:49:17.054Z,3332.00
2022-09-13T06:54:19.199Z,3400.00
2022-09-13T06:59:23.199Z,3464.00
2022-09-13T07:04:18.321Z,3528.00
2022-09-13T07:09:19.479Z,3596.00
2022-09-13T07:14:20.622Z,3668.00
2022-09-13T07:19:21.887Z,3728.00
2022-09-13T07:24:22.979Z,3780.00
2022-09-13T07:29:24.207Z,3836.00
2022-09-13T07:34:25.285Z,3904.00
2022-09-13T07:39:26.380Z,3940.00
2022-09-13T07:44:27.548Z,3984.00
2022-09-13T07:49:28.814Z,4028.00
2022-09-13T07:54:30.036Z,4072.00
2022-09-13T07:59:31.128Z,4116.00
2022-09-13T08:04:36.459Z,4144.00
2022-09-13T08:09:32.695Z,4192.00
2022-09-13T08:14:31.870Z,4164.00
2022-09-13T08:19:33.095Z,4168.00
2022-09-13T08:24:34.180Z,4172.00
2022-09-13T08:29:35.313Z,4200.00
2022-09-13T08:34:36.839Z,4224.00
2022-09-13T08:39:36.013Z,4244.00
2022-09-13T08:44:38.136Z,4292.00
2022-09-13T08:49:37.254Z,4340.00
2022-09-13T08:54:38.470Z,4404.00
2022-09-13T08:59:39.699Z,4536.00
2022-09-13T09:04:40.949Z,4068.00
2022-09-13T09:09:43.032Z,4268.00
2022-09-13T09:14:42.310Z,4776.00
2022-09-13T09:19:45.405Z,4620.00
2022-09-13T09:24:45.502Z,4672.00
2022-09-13T09:29:44.600Z,4740.00
2022-09-13T09:34:45.727Z,4956.00
2022-09-13T09:39:46.898Z,4556.00
2022-09-13T09:44:49.042Z,4748.00
2022-09-13T09:49:48.315Z,4516.00
2022-09-13T09:54:49.507Z,4356.00
2022-09-13T09:59:50.655Z,3956.00
2022-09-13T10:04:52.803Z,5036.00
2022-09-13T10:09:52.975Z,4416.00
2022-09-13T10:14:52.211Z,4112.00
2022-09-13T10:19:53.574Z,4212.00
2022-09-13T10:24:54.859Z,4292.00
2022-09-13T10:29:56.963Z,4852.00
2022-09-13T10:34:56.042Z,4424.00
2022-09-13T10:39:57.398Z,4940.00
2022-09-13T10:44:58.609Z,4888.00
2022-09-13T10:49:59.811Z,4812.00
2022-09-13T10:55:01.011Z,4892.00
2022-09-13T11:00:02.103Z,4904.00
2022-09-13T11:05:04.209Z,4948.00
2022-09-13T11:10:03.318Z,5084.00
2022-09-13T11:15:05.430Z,5220.00
2022-09-13T11:20:04.604Z,5272.00
2022-09-13T11:25:05.762Z,5500.00
2022-09-13T11:30:07.885Z,5304.00
2022-09-13T11:35:07.101Z,5164.00
2022-09-13T11:40:08.266Z,5964.00
2022-09-13T11:45:09.571Z,6368.00
2022-09-13T11:50:10.680Z,6704.00
2022-09-13T11:55:11.865Z,6544.00
2022-09-13T12:00:13.111Z,6856.00
2022-09-13T12:05:22.906Z,6892.00
2022-09-13T12:10:14.133Z,6212.00
2022-09-13T12:15:15.312Z,6088.00
2022-09-13T12:20:16.533Z,6572.00
2022-09-13T12:25:17.634Z,6960.00
2022-09-13T12:30:19.734Z,5860.00
2022-09-13T12:35:18.973Z,6028.00
2022-09-13T12:40:20.146Z,5872.00
2022-09-13T12:45:22.431Z,6944.00
2022-09-13T12:50:41.869Z,5996.00
2022-09-13T12:55:45.317Z,5276.00
2022-09-13T13:00:21.460Z,5192.00
2022-09-13T13:05:22.630Z,4632.00
2022-09-13T13:10:24.713Z,4652.00
2022-09-13T13:15:23.827Z,6240.00
2022-09-13T13:20:25.097Z,5932.00
2022-09-13T13:25:26.347Z,6360.00
2022-09-13T13:30:27.557Z,6652.00
2022-09-13T13:35:29.774Z,6500.00
2022-09-13T13:40:29.331Z,6852.00
2022-09-13T13:45:28.593Z,6544.00
2022-09-13T13:50:29.874Z,7068.00
2022-09-13T13:55:31.180Z,6952.00
2022-09-13T14:00:32.363Z,7016.00
2022-09-13T14:05:33.475Z,7348.00
2022-09-13T14:15:34.746Z,8256.00
2022-09-13T14:20:35.973Z,7108.00
2022-09-13T14:25:37.230Z,7468.00
2022-09-13T14:30:38.353Z,7788.00
2022-09-13T14:35:39.784Z,7428.00
2022-09-13T14:40:41.008Z,7572.00
2022-09-13T14:45:42.128Z,7372.00
2022-09-13T14:50:44.282Z,5972.00
2022-09-13T14:55:43.485Z,6340.00
2022-09-13T15:00:44.627Z,5572.00
2022-09-13T15:05:45.913Z,5592.00
2022-09-13T15:10:47.160Z,6132.00
2022-09-13T15:15:49.262Z,5504.00
2022-09-13T15:20:48.344Z,5548.00
2022-09-13T15:25:51.285Z,5140.00
2022-09-13T15:30:51.639Z,5228.00
2022-09-13T15:35:50.853Z,4656.00
2022-09-13T15:40:52.010Z,3900.00
2022-09-13T15:45:53.116Z,3632.00
2022-09-13T15:50:55.237Z,3448.00
2022-09-13T15:55:54.428Z,3004.00
2022-09-13T16:00:56.606Z,2744.00
2022-09-13T16:05:54.809Z,3064.00
2022-09-13T16:10:56.004Z,2732.00
2022-09-13T16:15:58.298Z,2344.00
2022-09-13T16:20:58.762Z,2168.00
2022-09-13T16:25:57.981Z,2060.00
2022-09-13T16:30:59.109Z,1956.00
2022-09-13T16:36:02.271Z,1824.00
2022-09-13T16:41:02.640Z,1644.00
2022-09-13T16:46:01.724Z,1428.00
2022-09-13T16:51:04.855Z,1224.00
2022-09-13T16:56:06.934Z,1060.00
2022-09-13T17:01:04.136Z,904.00
2022-09-13T17:06:07.263Z,700.00
2022-09-13T17:11:07.380Z,520.00
2022-09-13T17:16:06.698Z,368.00
2022-09-13T17:21:08.819Z,256.00
2022-09-13T17:26:07.963Z,176.00
2022-09-13T17:31:09.129Z,116.00
2022-09-13T17:36:11.254Z,72.00
2022-09-13T17:41:10.358Z,44.00
2022-09-13T17:46:11.571Z,24.00
2022-09-13T17:51:12.680Z,12.00
2022-09-13T17:56:13.914Z,8.00
2022-09-13T18:01:15.189Z,4.00
2022-09-13T18:06:18.360Z,0.00
2022-09-13T18:11:22.166Z,0.00
2022-09-13T18:16:21.220Z,0.00
2022-09-13T18:21:19.230Z,0.00
2022-09-13T18:26:18.599Z,0.00
2022-09-13T18:31:19.935Z,0.00
2022-09-13T18:36:21.312Z,0.00
2022-09-13T18:41:23.635Z,0.00
2022-09-13T18:46:23.120Z,0.00
2022-09-13T18:51:22.462Z,0.00
2022-09-13T18:56:23.798Z,0.00
2022-09-13T19:01:25.267Z,0.00
2022-09-13T19:06:25.678Z,0.00
2022-09-13T19:11:45.118Z,0.00
2022-09-13T19:16:25.407Z,0.00
2022-09-13T19:21:27.728Z,0.00
2022-09-13T19:26:28.080Z,0.00
2022-09-13T19:31:27.500Z,0.00
2022-09-13T19:36:33.894Z,0.00
2022-09-13T19:41:29.258Z,0.00
2022-09-13T19:46:28.716Z,0.00
2022-09-13T19:51:28.161Z,0.00
2022-09-13T19:56:30.445Z,0.00
2022-09-13T20:01:29.935Z,0.00
2022-09-13T20:06:29.322Z,0.00
2022-09-13T20:11:30.653Z,0.00
2022-09-13T20:16:33.013Z,0.00
2022-09-13T20:21:32.345Z,0.00
2022-09-13T20:26:33.676Z,0.00
2022-09-13T20:31:34.991Z,0.00
2022-09-13T20:36:36.314Z,0.00
2022-09-13T20:41:37.814Z,0.00
2022-09-13T20:46:38.108Z,0.00
2022-09-13T20:51:37.437Z,0.00
2022-09-13T20:56:38.539Z,0.00
2022-09-13T21:01:40.822Z,0.00
2022-09-13T21:06:40.379Z,0.00
2022-09-13T21:11:40.481Z,0.00
2022-09-13T21:16:39.877Z,0.00
2022-09-13T21:21:39.057Z,0.00
2022-09-13T21:26:40.243Z,0.00
2022-09-13T21:31:43.333Z,0.00
2022-09-13T21:36:42.614Z,0.00
2022-09-13T21:41:45.741Z,0.00
2022-09-13T21:46:46.583Z,0.00
2022-09-13T21:51:46.813Z,0.00
2022-09-13T21:56:45.904Z,0.00
2022-09-13T22:01:47.239Z,0.00
2022-09-13T22:06:48.330Z,0.00
2022-09-13T22:11:50.404Z,0.00
2022-09-13T22:16:49.553Z,0.00
2022-09-13T22:21:50.790Z,0.00
2022-09-13T22:26:51.977Z,0.00
2022-09-13T22:31:54.052Z,0.00
2022-09-13T22:36:53.301Z,0.00
2022-09-13T22:41:54.465Z,0.00
2022-09-13T22:46:55.540Z,0.00
2022-09-13T22:51:56.630Z,0.00
2022-09-13T22:56:57.858Z,0.00
2022-09-13T23:01:59.953Z,0.00
2022-09-13T23:07:00.029Z,0.00
2022-09-13T23:12:00.115Z,0.00
2022-09-13T23:16:58.255Z,0.00
2022-09-13T23:22:01.390Z,0.00
2022-09-13T23:27:01.471Z,0.00
2022-09-13T23:32:00.714Z,0.00
2022-09-13T23:37:02.787Z,0.00
2022-09-13T23:42:02.886Z,0.00
2022-09-13T23:47:02.067Z,0.00
2022-09-13T23:52:03.152Z,0.00
2022-09-13T23:57:04.231Z,0.00
